84.3°F
Current conditions from King Hill
Updated every 5 minutes
 
  Tuesday September 2, 2014

Observations for Westford

Westford

44° 37' 39"N, 73° 02' 29"W, Elevation 850 ft.
Eastern Time

Hourly observations for the last 72 hours

Date Time Temperature (F) Humi-
dity

(%)
Wind
(mph)
Pressure Rain (in)
Air Dew 6 Hour 1 Hr 3 Hr 6 Hr Day
Alt
(in)
Sea
Level

(mb)
Max Min
2 14:00 79.6 71.4 83.0 71.9 76 WSW 0 G 7 29.71 1006.1 0.00
2 13:00 82.2 71.0 69 SSW 4 G 13 29.72 1006.4 0.00
2 12:00 79.8 73.1 80 SW 3 G 11 29.73 1006.6 0.00
2 11:00 74.9 70.8 87 SW 0 G 12 29.75 1007.3 0.00
2 10:00 74.0 70.2 88 SSW 2 G 9 29.75 1007.6 0.00
2 09:00 75.9 71.1 85 SSW 3 G 10 29.75 1007.5 0.00
2 08:00 71.9 69.1 71.9 65.4 91 SSW 1 G 8 29.76 1008.0 0.00
2 07:00 69.5 67.7 94 S 2 G 7 29.74 1007.2 0.00
2 06:00 68.6 66.8 94 SSW 0 G 5 29.74 1007.2 0.00
2 05:00 68.7 66.6 93 SSW 1 G 8 29.74 1007.2 0.00
2 04:00 67.5 65.4 93 SSW 0 G 3 24.03 813.8 0.00
2 03:00 66.1 64.0 93 SSW 0 G 4 29.76 1007.9 0.00
2 02:00 65.8 63.7 66.8 64.3 93 Calm 29.77 1008.3 0.00
2 01:00 65.5 63.7 94 Calm 29.79 1008.9 0.00
2 00:00 65.9 64.4 95 SSW 0 G 5 29.80 1009.2 0.00
1 23:00 65.2 64.3 97 Calm 29.81 1009.6 0.00
1 22:00 64.6 63.7 97 Calm 29.82 1009.8 0.00
1 21:00 65.1 63.6 95 Calm 29.81 1009.6 0.00
1 20:00 66.8 64.1 84.3 66.8 91 Calm 29.80 1009.3 0.00
1 19:00 74.8 68.6 81 Calm 29.80 1009.3 0.00
1 18:00 83.7 68.4 60 Calm 29.81 1009.7 0.00
1 17:00 83.3 67.5 59 WSW 0 G 2 29.82 1009.9 0.00
1 16:00 82.9 66.6 58 W 0 G 4 29.83 1010.1 0.00
1 15:00 82.8 68.5 62 WSW 1 G 6 29.84 1010.6 0.00
1 14:00 79.8 69.2 81.7 67.4 70 WNW 0 G 9 29.85 1011.0 0.00
1 13:00 79.1 66.3 65 WNW 4 G 9 29.87 1011.4 0.00
1 12:00 78.5 67.9 70 SW 3 G 9 29.87 1011.5 0.00
1 11:00 77.3 68.4 74 SSW 0 G 8 29.87 1011.5 0.00
1 10:00 72.3 69.2 90 SSW 0 G 4 29.87 1011.7 0.00
1 09:00 70.1 68.3 94 SSW 0 G 9 29.89 1012.1 0.00
1 08:00 67.4 66.8 67.4 65.8 98 SSW 2 G 7 29.89 1012.3 0.00
1 07:00 66.6 66.0 98 SSW 0 G 4 29.88 1011.9 0.00
1 06:00 66.4 65.8 98 SSW 0 G 4 29.87 1011.4 0.00
1 05:00 66.5 65.9 98 Calm 29.86 1011.3 0.00
1 04:00 67.2 66.6 98 Calm 29.85 1011.0 0.00
1 03:00 66.7 66.1 98 Calm 29.85 1010.9 0.00
1 02:00 66.3 65.4 69.6 66.3 97 SW 0 G 4 29.84 1010.5 0.00
1 01:00 68.0 67.4 98 Calm 29.84 1010.6 0.00
1 00:00 67.7 66.8 97 SSW 1 G 8 29.83 1010.3 0.06
31 23:00 68.2 67.3 97 SSW 1 G 10 29.83 1010.4 0.06
31 22:00 68.6 67.7 97 SW 0 G 12 29.83 1010.2 0.06
31 21:00 69.0 67.8 96 SSW 1 G 8 29.84 1010.5 0.06
31 20:00 69.6 68.4 73.8 69.6 96 SSW 2 G 8 29.83 1010.3 0.01 0.02 0.02 0.06
31 19:00 70.1 68.9 96 SSW 2 G 9 21.77 737.3 0.05
31 18:00 70.8 69.3 95 SSW 2 G 6 29.82 1009.8 0.01 0.05
31 17:00 71.1 69.3 94 SW 1 G 10 29.83 1010.1 0.04
31 16:00 71.1 69.0 93 S 1 G 6 29.83 1010.2 0.04
31 15:00 71.6 68.5 90 SSW 2 G 10 29.84 1010.5 0.04
31 14:00 73.8 69.0 75.3 66.7 85 SW 3 G 15 29.84 1010.7 0.04
31 13:00 74.6 69.8 85 SSW 1 G 14 29.85 1010.7 0.04
31 12:00 74.6 68.7 82 SSW 6 G 22 29.85 1011.0 0.04
31 11:00 70.9 67.5 89 SSW 1 G 12 29.87 1011.5 0.04
31 10:00 69.6 66.5 90 SSW 6 G 16 32.07 1086.2 0.04
31 09:00 67.7 65.3 92 SSW 5 G 15 29.88 1011.9 0.04
31 08:00 66.7 64.9 67.8 65.3 94 SSW 1 G 12 29.88 1011.9 0.04 0.04 0.04
31 07:00 65.5 64.0 95 S 1 G 15 29.88 1012.0 0.04
31 06:00 65.3 63.5 94 SSW 2 G 8 29.89 1012.3 0.04 0.04
31 05:00 67.0 63.3 88 SW 1 G 10 29.89 1012.3 0.00
31 04:00 67.2 62.9 86 SW 7 G 17 29.88 1012.0 0.00
31 03:00 67.4 62.1 83 SSW 6 G 16 29.90 1012.5 0.00
31 02:00 67.7 62.0 69.2 67.0 82 SSW 4 G 15 29.90 1012.6 0.00
31 01:00 67.5 61.1 80 SW 1 G 12 29.91 1012.8 0.00
31 00:00 68.1 60.6 77 SSW 5 G 14 29.92 1013.4 0.00
30 23:00 68.6 61.1 77 SSW 4 G 13 29.94 1013.9 0.00
30 22:00 68.8 60.6 75 SW 0 G 20 29.94 1013.8 0.00
30 21:00 68.9 61.0 76 SSW 1 G 14 29.95 1014.2 0.00
30 20:00 68.5 60.6 76.5 68.3 76 SSW 1 G 9 29.94 1014.0 0.00
30 19:00 69.9 60.9 73 S 2 G 9 29.94 1013.8 0.00
30 18:00 74.3 61.8 65 SSW 1 G 11 29.95 1014.3 0.00
30 17:00 75.6 62.1 63 SSW 3 G 11 29.97 1015.0 0.00
30 16:00 74.6 62.9 67 S 1 G 12 29.99 1015.5 0.00
30 15:00 71.7 61.0 69 SSW 4 G 13 30.01 1016.4 0.00

Data generated by WxSolution Version 1.8.7.2, Build 2014.02.15.


 
 
Current Radar Loop:

Copyright © WestfordWeather.net 2007-2014. All rights reserved.